ILE weather

Skylark Field
Killeen, Texas, United States

Public forecast

Using degrees Fahrenheit for public forecast. Weather courtesy of forecast.io.

Current aviation weather report (METAR) for Skylark Field

Retrieved 2019/10/15 06:56 UTC (23 minutes ago):

KILE 150656Z AUTO 10SM CLR 23/22 A2993 RMK AO2 SLP123 T02280222 PNO

Closest aviation forecast (TAF) to Skylark Field

Closest forecast is Robert Gray Army Air Field Airport, 7.4 nm (13.7 km) W. Retrieved 2019/10/15 08:25 UTC (0 seconds ago):

TAF KGRK 150800Z 1508/1614 12009KT 9999 BKN150 QNH2991INS BECMG 1511/1512 19009KT 9999 SCT008 BKN070 QNH2992INS TEMPO 1512/1515 19010G15KT 8000 -SHRA BKN008 BECMG 1514/1515 21009KT 9999 SCT015 BKN090 QNH2993INS BECMG 1519/1520 21010G15KT 8000 -SHRA VCTS SCT015 BKN040CB QNH2988INS BECMG 1522/1523 25012KT 9999 NSW FEW040 BKN120 QNH2987INS BECMG 1606/1607 27010G15KT 8000 -SHRA VCTS SCT008 BKN040CB QNH2990INS TEMPO 1606/1610 VRB10G25KT 4800 -TSRA BKN020CB BECMG 1611/1612 02013KT 9999 NSW SCT040 QNH2993INS TX27/1518Z TN21/1512Z